sensor_id;sensor_type;location;lat;lon;timestamp;temperature;humidity
44705;DHT22;30431;48.520;9.046;2024-01-30T00:02:20;1.00;99.90
44705;DHT22;30431;48.520;9.046;2024-01-30T00:04:47;1.00;99.90
44705;DHT22;30431;48.520;9.046;2024-01-30T00:07:14;1.00;99.90
44705;DHT22;30431;48.520;9.046;2024-01-30T00:09:41;1.00;99.90
44705;DHT22;30431;48.520;9.046;2024-01-30T00:12:11;1.00;99.90
44705;DHT22;30431;48.520;9.046;2024-01-30T00:14:44;1.00;99.90
44705;DHT22;30431;48.520;9.046;2024-01-30T00:17:13;1.10;99.90
44705;DHT22;30431;48.520;9.046;2024-01-30T00:19:40;1.10;99.90
44705;DHT22;30431;48.520;9.046;2024-01-30T00:22:10;1.00;99.90
44705;DHT22;30431;48.520;9.046;2024-01-30T00:24:37;1.10;99.90
44705;DHT22;30431;48.520;9.046;2024-01-30T00:27:04;1.00;99.90
44705;DHT22;30431;48.520;9.046;2024-01-30T00:29:33;1.00;99.90
44705;DHT22;30431;48.520;9.046;2024-01-30T00:32:03;1.00;99.90
44705;DHT22;30431;48.520;9.046;2024-01-30T00:34:30;1.00;99.90
44705;DHT22;30431;48.520;9.046;2024-01-30T00:36:57;1.00;99.90
44705;DHT22;30431;48.520;9.046;2024-01-30T00:39:24;1.00;99.90
44705;DHT22;30431;48.520;9.046;2024-01-30T00:41:56;1.10;99.90
44705;DHT22;30431;48.520;9.046;2024-01-30T00:44:23;1.10;99.90
44705;DHT22;30431;48.520;9.046;2024-01-30T00:46:50;1.10;99.90
44705;DHT22;30431;48.520;9.046;2024-01-30T00:49:21;1.10;99.90
44705;DHT22;30431;48.520;9.046;2024-01-30T00:51:50;1.10;99.90
44705;DHT22;30431;48.520;9.046;2024-01-30T00:54:17;1.10;99.90
44705;DHT22;30431;48.520;9.046;2024-01-30T00:56:44;1.10;99.90
44705;DHT22;30431;48.520;9.046;2024-01-30T00:59:11;1.10;99.90
44705;DHT22;30431;48.520;9.046;2024-01-30T01:01:38;1.10;99.90
44705;DHT22;30431;48.520;9.046;2024-01-30T01:04:05;1.10;99.90
44705;DHT22;30431;48.520;9.046;2024-01-30T01:06:36;1.10;99.90
44705;DHT22;30431;48.520;9.046;2024-01-30T01:09:08;1.10;99.90
44705;DHT22;30431;48.520;9.046;2024-01-30T01:11:35;1.10;99.90
44705;DHT22;30431;48.520;9.046;2024-01-30T01:14:02;1.10;99.90
44705;DHT22;30431;48.520;9.046;2024-01-30T01:16:29;1.10;99.90
44705;DHT22;30431;48.520;9.046;2024-01-30T01:18:57;1.10;99.90
44705;DHT22;30431;48.520;9.046;2024-01-30T01:21:24;1.10;99.90
44705;DHT22;30431;48.520;9.046;2024-01-30T01:23:53;1.10;99.90
44705;DHT22;30431;48.520;9.046;2024-01-30T01:26:22;1.10;99.90
44705;DHT22;30431;48.520;9.046;2024-01-30T01:28:49;1.10;99.90
44705;DHT22;30431;48.520;9.046;2024-01-30T01:31:16;1.10;99.90
44705;DHT22;30431;48.520;9.046;2024-01-30T01:33:44;1.10;99.90
44705;DHT22;30431;48.520;9.046;2024-01-30T01:36:13;1.10;99.90
44705;DHT22;30431;48.520;9.046;2024-01-30T01:38:40;1.10;99.90
44705;DHT22;30431;48.520;9.046;2024-01-30T01:41:09;1.10;99.90
44705;DHT22;30431;48.520;9.046;2024-01-30T01:43:36;1.10;99.90
44705;DHT22;30431;48.520;9.046;2024-01-30T01:46:06;1.10;99.90
44705;DHT22;30431;48.520;9.046;2024-01-30T01:48:36;1.10;99.90
44705;DHT22;30431;48.520;9.046;2024-01-30T01:51:05;1.10;99.90
44705;DHT22;30431;48.520;9.046;2024-01-30T01:53:33;1.10;99.90
44705;DHT22;30431;48.520;9.046;2024-01-30T01:56:00;1.10;99.90
44705;DHT22;30431;48.520;9.046;2024-01-30T01:58:30;1.00;99.90
44705;DHT22;30431;48.520;9.046;2024-01-30T02:01:00;1.00;99.90
44705;DHT22;30431;48.520;9.046;2024-01-30T02:03:27;1.00;99.90
44705;DHT22;30431;48.520;9.046;2024-01-30T02:05:57;1.00;99.90
44705;DHT22;30431;48.520;9.046;2024-01-30T02:08:25;0.90;99.90
44705;DHT22;30431;48.520;9.046;2024-01-30T02:10:57;0.90;99.90
44705;DHT22;30431;48.520;9.046;2024-01-30T02:13:24;0.90;99.90
44705;DHT22;30431;48.520;9.046;2024-01-30T02:15:56;0.90;99.90
44705;DHT22;30431;48.520;9.046;2024-01-30T02:18:23;0.80;99.90
44705;DHT22;30431;48.520;9.046;2024-01-30T02:20:56;0.80;99.90
44705;DHT22;30431;48.520;9.046;2024-01-30T02:23:24;0.80;99.90
44705;DHT22;30431;48.520;9.046;2024-01-30T02:25:56;0.80;99.90
44705;DHT22;30431;48.520;9.046;2024-01-30T02:28:25;0.80;99.90
44705;DHT22;30431;48.520;9.046;2024-01-30T02:30:52;0.70;99.90
44705;DHT22;30431;48.520;9.046;2024-01-30T02:33:19;0.70;99.90
44705;DHT22;30431;48.520;9.046;2024-01-30T02:35:46;0.70;99.90
44705;DHT22;30431;48.520;9.046;2024-01-30T02:38:15;0.70;99.90
44705;DHT22;30431;48.520;9.046;2024-01-30T02:40:42;0.70;99.90
44705;DHT22;30431;48.520;9.046;2024-01-30T02:43:12;0.60;99.90
44705;DHT22;30431;48.520;9.046;2024-01-30T02:45:39;0.60;99.90
44705;DHT22;30431;48.520;9.046;2024-01-30T02:48:06;0.60;99.90
44705;DHT22;30431;48.520;9.046;2024-01-30T02:50:35;0.60;99.90
44705;DHT22;30431;48.520;9.046;2024-01-30T02:53:02;0.50;99.90
44705;DHT22;30431;48.520;9.046;2024-01-30T02:55:29;0.50;99.90
44705;DHT22;30431;48.520;9.046;2024-01-30T02:57:56;0.50;99.90
44705;DHT22;30431;48.520;9.046;2024-01-30T03:00:23;0.50;99.90
44705;DHT22;30431;48.520;9.046;2024-01-30T03:02:53;0.50;99.90
44705;DHT22;30431;48.520;9.046;2024-01-30T03:05:20;0.50;99.90
44705;DHT22;30431;48.520;9.046;2024-01-30T03:07:47;0.50;99.90
44705;DHT22;30431;48.520;9.046;2024-01-30T03:10:14;0.50;99.90
44705;DHT22;30431;48.520;9.046;2024-01-30T03:12:43;0.50;99.90
44705;DHT22;30431;48.520;9.046;2024-01-30T03:15:10;0.40;99.90
44705;DHT22;30431;48.520;9.046;2024-01-30T03:17:42;0.40;99.90
44705;DHT22;30431;48.520;9.046;2024-01-30T03:20:10;0.40;99.90
44705;DHT22;30431;48.520;9.046;2024-01-30T03:22:39;0.40;99.90
44705;DHT22;30431;48.520;9.046;2024-01-30T03:25:06;0.40;99.90
44705;DHT22;30431;48.520;9.046;2024-01-30T03:27:34;0.40;99.90
44705;DHT22;30431;48.520;9.046;2024-01-30T03:30:01;0.40;99.90
44705;DHT22;30431;48.520;9.046;2024-01-30T03:32:28;0.40;99.90
44705;DHT22;30431;48.520;9.046;2024-01-30T03:34:55;0.30;99.90
44705;DHT22;30431;48.520;9.046;2024-01-30T03:37:22;0.30;99.90
44705;DHT22;30431;48.520;9.046;2024-01-30T03:39:50;0.30;99.90
44705;DHT22;30431;48.520;9.046;2024-01-30T03:42:17;0.20;99.90
44705;DHT22;30431;48.520;9.046;2024-01-30T03:44:46;0.20;99.90
44705;DHT22;30431;48.520;9.046;2024-01-30T03:47:13;0.20;99.90
44705;DHT22;30431;48.520;9.046;2024-01-30T03:49:40;0.20;99.90
44705;DHT22;30431;48.520;9.046;2024-01-30T03:52:09;0.20;99.90
44705;DHT22;30431;48.520;9.046;2024-01-30T03:54:36;0.20;99.90
44705;DHT22;30431;48.520;9.046;2024-01-30T03:57:04;0.10;99.90
44705;DHT22;30431;48.520;9.046;2024-01-30T03:59:31;0.10;99.90
44705;DHT22;30431;48.520;9.046;2024-01-30T04:02:00;0.10;99.90
44705;DHT22;30431;48.520;9.046;2024-01-30T04:04:27;0.10;99.90
44705;DHT22;30431;48.520;9.046;2024-01-30T04:06:54;0.10;99.90
44705;DHT22;30431;48.520;9.046;2024-01-30T04:09:23;0.10;99.90
44705;DHT22;30431;48.520;9.046;2024-01-30T04:11:50;0.10;99.90
44705;DHT22;30431;48.520;9.046;2024-01-30T04:14:19;0.20;99.90
44705;DHT22;30431;48.520;9.046;2024-01-30T04:16:46;0.20;99.90
44705;DHT22;30431;48.520;9.046;2024-01-30T04:19:13;0.20;99.90
44705;DHT22;30431;48.520;9.046;2024-01-30T04:21:43;0.20;99.90
44705;DHT22;30431;48.520;9.046;2024-01-30T04:24:12;0.10;99.90
44705;DHT22;30431;48.520;9.046;2024-01-30T04:26:39;0.10;99.90
44705;DHT22;30431;48.520;9.046;2024-01-30T04:29:06;0.10;99.90
44705;DHT22;30431;48.520;9.046;2024-01-30T04:31:36;0.10;99.90
44705;DHT22;30431;48.520;9.046;2024-01-30T04:34:06;0.10;99.90
44705;DHT22;30431;48.520;9.046;2024-01-30T04:36:33;0.10;99.90
44705;DHT22;30431;48.520;9.046;2024-01-30T04:39:00;0.20;99.90
44705;DHT22;30431;48.520;9.046;2024-01-30T04:41:27;0.10;99.90
44705;DHT22;30431;48.520;9.046;2024-01-30T04:43:58;0.10;99.90
44705;DHT22;30431;48.520;9.046;2024-01-30T04:46:25;0.20;99.90
44705;DHT22;30431;48.520;9.046;2024-01-30T04:48:52;0.10;99.90
44705;DHT22;30431;48.520;9.046;2024-01-30T04:51:19;0.10;99.90
44705;DHT22;30431;48.520;9.046;2024-01-30T04:53:48;0.10;99.90
44705;DHT22;30431;48.520;9.046;2024-01-30T04:56:15;0.10;99.90
44705;DHT22;30431;48.520;9.046;2024-01-30T04:58:42;0.00;99.90
44705;DHT22;30431;48.520;9.046;2024-01-30T05:01:09;0.00;99.90
44705;DHT22;30431;48.520;9.046;2024-01-30T05:03:36;0.00;99.90
44705;DHT22;30431;48.520;9.046;2024-01-30T05:06:06;0.00;99.90
44705;DHT22;30431;48.520;9.046;2024-01-30T05:08:33;-0.10;99.90
44705;DHT22;30431;48.520;9.046;2024-01-30T05:11:02;-0.10;99.90
44705;DHT22;30431;48.520;9.046;2024-01-30T05:13:32;-0.10;99.90
44705;DHT22;30431;48.520;9.046;2024-01-30T05:16:02;-0.10;99.90
44705;DHT22;30431;48.520;9.046;2024-01-30T05:18:30;-0.10;99.90
44705;DHT22;30431;48.520;9.046;2024-01-30T05:20:59;-0.10;99.90
44705;DHT22;30431;48.520;9.046;2024-01-30T05:23:28;-0.10;99.90
44705;DHT22;30431;48.520;9.046;2024-01-30T05:26:00;-0.10;99.90
44705;DHT22;30431;48.520;9.046;2024-01-30T05:28:29;-0.10;99.90
44705;DHT22;30431;48.520;9.046;2024-01-30T05:30:59;-0.20;99.90
44705;DHT22;30431;48.520;9.046;2024-01-30T05:33:26;-0.10;99.90
44705;DHT22;30431;48.520;9.046;2024-01-30T05:35:56;-0.10;99.90
44705;DHT22;30431;48.520;9.046;2024-01-30T05:38:23;-0.10;99.90
44705;DHT22;30431;48.520;9.046;2024-01-30T05:40:50;-0.10;99.90
44705;DHT22;30431;48.520;9.046;2024-01-30T05:43:24;-0.10;99.90
44705;DHT22;30431;48.520;9.046;2024-01-30T05:45:54;-0.10;99.90
44705;DHT22;30431;48.520;9.046;2024-01-30T05:48:21;-0.10;99.90
44705;DHT22;30431;48.520;9.046;2024-01-30T05:50:48;-0.20;99.90
44705;DHT22;30431;48.520;9.046;2024-01-30T05:53:15;-0.20;99.90
44705;DHT22;30431;48.520;9.046;2024-01-30T05:55:46;-0.20;99.90
44705;DHT22;30431;48.520;9.046;2024-01-30T05:58:13;-0.10;99.90
44705;DHT22;30431;48.520;9.046;2024-01-30T06:00:42;-0.10;99.90
44705;DHT22;30431;48.520;9.046;2024-01-30T06:03:10;-0.10;99.90
44705;DHT22;30431;48.520;9.046;2024-01-30T06:05:37;-0.20;99.90
44705;DHT22;30431;48.520;9.046;2024-01-30T06:08:04;-0.20;99.90
44705;DHT22;30431;48.520;9.046;2024-01-30T06:10:34;-0.20;99.90
44705;DHT22;30431;48.520;9.046;2024-01-30T06:13:03;-0.20;99.90
44705;DHT22;30431;48.520;9.046;2024-01-30T06:15:30;-0.20;99.90
44705;DHT22;30431;48.520;9.046;2024-01-30T06:17:59;-0.20;99.90
44705;DHT22;30431;48.520;9.046;2024-01-30T06:20:26;-0.20;99.90
44705;DHT22;30431;48.520;9.046;2024-01-30T06:22:55;-0.30;99.90
44705;DHT22;30431;48.520;9.046;2024-01-30T06:25:22;-0.30;99.90
44705;DHT22;30431;48.520;9.046;2024-01-30T06:27:52;-0.40;99.90
44705;DHT22;30431;48.520;9.046;2024-01-30T06:30:19;-0.40;99.90
44705;DHT22;30431;48.520;9.046;2024-01-30T06:32:46;-0.40;99.90
44705;DHT22;30431;48.520;9.046;2024-01-30T06:35:13;-0.40;99.90
44705;DHT22;30431;48.520;9.046;2024-01-30T06:37:42;-0.40;99.90
44705;DHT22;30431;48.520;9.046;2024-01-30T06:40:09;-0.40;99.90
44705;DHT22;30431;48.520;9.046;2024-01-30T06:42:36;-0.40;99.90
44705;DHT22;30431;48.520;9.046;2024-01-30T06:45:06;-0.40;99.90
44705;DHT22;30431;48.520;9.046;2024-01-30T06:47:33;-0.40;99.90
44705;DHT22;30431;48.520;9.046;2024-01-30T06:50:00;-0.40;99.90
44705;DHT22;30431;48.520;9.046;2024-01-30T06:52:31;-0.40;99.90
44705;DHT22;30431;48.520;9.046;2024-01-30T06:55:01;-0.40;99.90
44705;DHT22;30431;48.520;9.046;2024-01-30T06:57:28;-0.40;99.90
44705;DHT22;30431;48.520;9.046;2024-01-30T06:59:57;-0.30;99.90
44705;DHT22;30431;48.520;9.046;2024-01-30T07:02:24;-0.30;99.90
44705;DHT22;30431;48.520;9.046;2024-01-30T07:04:53;-0.20;99.90
44705;DHT22;30431;48.520;9.046;2024-01-30T07:07:22;-0.20;99.90
44705;DHT22;30431;48.520;9.046;2024-01-30T07:09:49;-0.20;99.90
44705;DHT22;30431;48.520;9.046;2024-01-30T07:12:19;-0.10;99.90
44705;DHT22;30431;48.520;9.046;2024-01-30T07:14:46;-0.10;99.90
44705;DHT22;30431;48.520;9.046;2024-01-30T07:17:13;-0.10;99.90
44705;DHT22;30431;48.520;9.046;2024-01-30T07:19:40;0.00;99.90
44705;DHT22;30431;48.520;9.046;2024-01-30T07:22:10;0.00;99.90
44705;DHT22;30431;48.520;9.046;2024-01-30T07:24:42;0.00;99.90
44705;DHT22;30431;48.520;9.046;2024-01-30T07:27:11;0.00;99.90
44705;DHT22;30431;48.520;9.046;2024-01-30T07:29:38;0.10;99.90
44705;DHT22;30431;48.520;9.046;2024-01-30T07:32:05;0.10;99.90
44705;DHT22;30431;48.520;9.046;2024-01-30T07:34:32;0.20;99.90
44705;DHT22;30431;48.520;9.046;2024-01-30T07:37:07;0.30;99.90
44705;DHT22;30431;48.520;9.046;2024-01-30T07:39:39;0.30;99.90
44705;DHT22;30431;48.520;9.046;2024-01-30T07:42:06;0.40;99.90
44705;DHT22;30431;48.520;9.046;2024-01-30T07:44:34;0.50;99.90
44705;DHT22;30431;48.520;9.046;2024-01-30T07:47:03;0.60;99.90
44705;DHT22;30431;48.520;9.046;2024-01-30T07:49:30;0.70;99.90
44705;DHT22;30431;48.520;9.046;2024-01-30T07:51:58;0.80;99.90
44705;DHT22;30431;48.520;9.046;2024-01-30T07:54:31;0.90;99.90
44705;DHT22;30431;48.520;9.046;2024-01-30T07:57:04;1.00;99.90
44705;DHT22;30431;48.520;9.046;2024-01-30T07:59:33;1.00;99.90
44705;DHT22;30431;48.520;9.046;2024-01-30T08:02:06;1.20;99.90
44705;DHT22;30431;48.520;9.046;2024-01-30T08:04:34;1.30;99.90
44705;DHT22;30431;48.520;9.046;2024-01-30T08:07:01;1.40;99.90
44705;DHT22;30431;48.520;9.046;2024-01-30T08:09:28;1.50;99.90
44705;DHT22;30431;48.520;9.046;2024-01-30T08:11:57;1.60;99.90
44705;DHT22;30431;48.520;9.046;2024-01-30T08:14:24;1.70;99.90
44705;DHT22;30431;48.520;9.046;2024-01-30T08:16:52;1.80;99.90
44705;DHT22;30431;48.520;9.046;2024-01-30T08:19:19;1.80;99.90
44705;DHT22;30431;48.520;9.046;2024-01-30T08:21:46;1.90;99.90
44705;DHT22;30431;48.520;9.046;2024-01-30T08:24:13;2.00;99.90
44705;DHT22;30431;48.520;9.046;2024-01-30T08:26:43;2.00;99.90
44705;DHT22;30431;48.520;9.046;2024-01-30T08:29:10;2.10;99.90
44705;DHT22;30431;48.520;9.046;2024-01-30T08:31:37;2.10;99.90
44705;DHT22;30431;48.520;9.046;2024-01-30T08:34:06;2.10;99.90
44705;DHT22;30431;48.520;9.046;2024-01-30T08:36:33;2.10;99.90
44705;DHT22;30431;48.520;9.046;2024-01-30T08:39:03;2.10;99.90
44705;DHT22;30431;48.520;9.046;2024-01-30T08:41:32;2.20;99.90
44705;DHT22;30431;48.520;9.046;2024-01-30T08:43:59;2.30;99.90
44705;DHT22;30431;48.520;9.046;2024-01-30T08:46:26;2.30;99.90
44705;DHT22;30431;48.520;9.046;2024-01-30T08:48:53;2.30;99.90
44705;DHT22;30431;48.520;9.046;2024-01-30T08:51:22;2.30;99.90
44705;DHT22;30431;48.520;9.046;2024-01-30T08:53:51;2.30;99.90
44705;DHT22;30431;48.520;9.046;2024-01-30T08:56:20;2.30;99.90
44705;DHT22;30431;48.520;9.046;2024-01-30T08:58:47;2.30;99.90
44705;DHT22;30431;48.520;9.046;2024-01-30T09:01:14;2.40;99.90
44705;DHT22;30431;48.520;9.046;2024-01-30T09:03:41;2.40;99.90
44705;DHT22;30431;48.520;9.046;2024-01-30T09:06:13;2.50;99.90
44705;DHT22;30431;48.520;9.046;2024-01-30T09:08:40;2.50;99.90
44705;DHT22;30431;48.520;9.046;2024-01-30T09:11:13;2.70;99.90
44705;DHT22;30431;48.520;9.046;2024-01-30T09:13:41;2.90;99.90
44705;DHT22;30431;48.520;9.046;2024-01-30T09:16:07;3.10;99.90
44705;DHT22;30431;48.520;9.046;2024-01-30T09:18:35;3.30;99.90
44705;DHT22;30431;48.520;9.046;2024-01-30T09:21:02;3.50;99.90
44705;DHT22;30431;48.520;9.046;2024-01-30T09:23:31;3.70;99.90
44705;DHT22;30431;48.520;9.046;2024-01-30T09:25:59;3.90;99.90
44705;DHT22;30431;48.520;9.046;2024-01-30T09:28:26;4.10;99.90
44705;DHT22;30431;48.520;9.046;2024-01-30T09:30:54;4.20;99.90
44705;DHT22;30431;48.520;9.046;2024-01-30T09:33:20;4.30;99.90
44705;DHT22;30431;48.520;9.046;2024-01-30T09:35:48;4.50;99.90
44705;DHT22;30431;48.520;9.046;2024-01-30T09:38:15;4.70;99.90
44705;DHT22;30431;48.520;9.046;2024-01-30T09:40:42;4.80;99.90
44705;DHT22;30431;48.520;9.046;2024-01-30T09:43:09;4.90;99.90
44705;DHT22;30431;48.520;9.046;2024-01-30T09:45:39;5.10;99.90
44705;DHT22;30431;48.520;9.046;2024-01-30T09:48:09;5.20;99.90
44705;DHT22;30431;48.520;9.046;2024-01-30T09:50:37;5.20;99.90
44705;DHT22;30431;48.520;9.046;2024-01-30T09:53:07;5.30;99.90
44705;DHT22;30431;48.520;9.046;2024-01-30T09:55:36;5.40;99.90
44705;DHT22;30431;48.520;9.046;2024-01-30T09:58:06;5.60;99.90
44705;DHT22;30431;48.520;9.046;2024-01-30T10:00:33;5.70;99.90
44705;DHT22;30431;48.520;9.046;2024-01-30T10:03:00;5.60;99.90
44705;DHT22;30431;48.520;9.046;2024-01-30T10:05:31;5.70;99.90
44705;DHT22;30431;48.520;9.046;2024-01-30T10:08:01;5.70;99.90
44705;DHT22;30431;48.520;9.046;2024-01-30T10:10:28;5.70;99.90
44705;DHT22;30431;48.520;9.046;2024-01-30T10:12:57;5.70;99.90
44705;DHT22;30431;48.520;9.046;2024-01-30T10:15:25;5.80;99.90
44705;DHT22;30431;48.520;9.046;2024-01-30T10:17:57;6.00;99.90
44705;DHT22;30431;48.520;9.046;2024-01-30T10:20:25;6.10;99.90
44705;DHT22;30431;48.520;9.046;2024-01-30T10:22:52;6.20;99.90
44705;DHT22;30431;48.520;9.046;2024-01-30T10:25:21;6.30;99.90
44705;DHT22;30431;48.520;9.046;2024-01-30T10:27:53;6.30;99.90
44705;DHT22;30431;48.520;9.046;2024-01-30T10:30:26;6.40;99.90
44705;DHT22;30431;48.520;9.046;2024-01-30T10:32:54;6.40;99.90
44705;DHT22;30431;48.520;9.046;2024-01-30T10:35:22;6.40;99.90
44705;DHT22;30431;48.520;9.046;2024-01-30T10:37:52;6.60;99.90
44705;DHT22;30431;48.520;9.046;2024-01-30T10:40:21;6.70;99.90
44705;DHT22;30431;48.520;9.046;2024-01-30T10:42:53;6.80;99.90
44705;DHT22;30431;48.520;9.046;2024-01-30T10:45:22;6.90;99.90
44705;DHT22;30431;48.520;9.046;2024-01-30T10:47:55;6.90;99.90
44705;DHT22;30431;48.520;9.046;2024-01-30T10:50:25;7.00;99.90
44705;DHT22;30431;48.520;9.046;2024-01-30T10:52:54;7.00;99.90
44705;DHT22;30431;48.520;9.046;2024-01-30T10:55:22;7.00;99.90
44705;DHT22;30431;48.520;9.046;2024-01-30T10:57:55;7.00;99.90
44705;DHT22;30431;48.520;9.046;2024-01-30T11:00:25;7.00;99.90
44705;DHT22;30431;48.520;9.046;2024-01-30T11:02:53;7.10;99.90
44705;DHT22;30431;48.520;9.046;2024-01-30T11:05:24;7.30;99.90
44705;DHT22;30431;48.520;9.046;2024-01-30T11:08:04;7.30;99.90
44705;DHT22;30431;48.520;9.046;2024-01-30T11:10:48;7.40;99.90
44705;DHT22;30431;48.520;9.046;2024-01-30T11:13:19;7.50;99.90
44705;DHT22;30431;48.520;9.046;2024-01-30T11:15:48;7.60;99.90
44705;DHT22;30431;48.520;9.046;2024-01-30T11:18:26;7.70;99.90
44705;DHT22;30431;48.520;9.046;2024-01-30T11:20:56;7.70;99.90
44705;DHT22;30431;48.520;9.046;2024-01-30T11:23:23;7.90;99.90
44705;DHT22;30431;48.520;9.046;2024-01-30T11:25:52;8.00;99.90
44705;DHT22;30431;48.520;9.046;2024-01-30T11:28:22;8.10;99.90
44705;DHT22;30431;48.520;9.046;2024-01-30T11:31:03;8.20;99.90
44705;DHT22;30431;48.520;9.046;2024-01-30T11:33:30;8.20;99.90
44705;DHT22;30431;48.520;9.046;2024-01-30T11:36:00;8.30;99.90
44705;DHT22;30431;48.520;9.046;2024-01-30T11:38:28;8.40;99.90
44705;DHT22;30431;48.520;9.046;2024-01-30T11:40:58;8.40;99.90
44705;DHT22;30431;48.520;9.046;2024-01-30T11:43:28;8.50;99.90
44705;DHT22;30431;48.520;9.046;2024-01-30T11:45:57;8.50;99.90
44705;DHT22;30431;48.520;9.046;2024-01-30T11:48:26;8.60;99.90
44705;DHT22;30431;48.520;9.046;2024-01-30T11:50:55;8.70;99.90
44705;DHT22;30431;48.520;9.046;2024-01-30T11:53:22;8.80;99.90
44705;DHT22;30431;48.520;9.046;2024-01-30T11:55:50;9.00;99.90
44705;DHT22;30431;48.520;9.046;2024-01-30T11:58:17;9.20;99.90
44705;DHT22;30431;48.520;9.046;2024-01-30T12:00:55;9.30;99.90
44705;DHT22;30431;48.520;9.046;2024-01-30T12:03:25;9.30;99.90
44705;DHT22;30431;48.520;9.046;2024-01-30T12:05:58;9.40;99.90
44705;DHT22;30431;48.520;9.046;2024-01-30T12:08:26;9.40;99.90
44705;DHT22;30431;48.520;9.046;2024-01-30T12:10:57;9.40;99.90
44705;DHT22;30431;48.520;9.046;2024-01-30T12:13:34;9.50;99.90
44705;DHT22;30431;48.520;9.046;2024-01-30T12:16:01;9.60;99.90
44705;DHT22;30431;48.520;9.046;2024-01-30T12:18:29;9.60;99.90
44705;DHT22;30431;48.520;9.046;2024-01-30T12:20:59;9.70;99.60
44705;DHT22;30431;48.520;9.046;2024-01-30T12:23:27;9.70;99.60
44705;DHT22;30431;48.520;9.046;2024-01-30T12:25:54;9.70;99.90
44705;DHT22;30431;48.520;9.046;2024-01-30T12:28:21;9.80;99.20
44705;DHT22;30431;48.520;9.046;2024-01-30T12:30:56;9.90;97.80
44705;DHT22;30431;48.520;9.046;2024-01-30T12:33:27;9.90;97.90
44705;DHT22;30431;48.520;9.046;2024-01-30T12:35:56;9.90;98.60
44705;DHT22;30431;48.520;9.046;2024-01-30T12:38:29;9.90;98.60
44705;DHT22;30431;48.520;9.046;2024-01-30T12:40:57;10.00;97.60
44705;DHT22;30431;48.520;9.046;2024-01-30T12:43:25;10.10;98.10
44705;DHT22;30431;48.520;9.046;2024-01-30T12:46:04;10.10;98.10
44705;DHT22;30431;48.520;9.046;2024-01-30T12:48:31;10.10;98.20
44705;DHT22;30431;48.520;9.046;2024-01-30T12:51:01;10.10;97.80
44705;DHT22;30431;48.520;9.046;2024-01-30T12:53:30;10.20;98.60
44705;DHT22;30431;48.520;9.046;2024-01-30T12:55:57;10.30;97.40
44705;DHT22;30431;48.520;9.046;2024-01-30T12:58:27;10.30;97.10
44705;DHT22;30431;48.520;9.046;2024-01-30T13:00:56;10.30;97.10
44705;DHT22;30431;48.520;9.046;2024-01-30T13:03:25;10.30;97.00
44705;DHT22;30431;48.520;9.046;2024-01-30T13:05:53;10.30;96.80
44705;DHT22;30431;48.520;9.046;2024-01-30T13:08:20;10.30;97.00
44705;DHT22;30431;48.520;9.046;2024-01-30T13:10:49;10.20;97.40
44705;DHT22;30431;48.520;9.046;2024-01-30T13:13:16;10.10;97.80
44705;DHT22;30431;48.520;9.046;2024-01-30T13:15:47;10.10;97.60
44705;DHT22;30431;48.520;9.046;2024-01-30T13:18:15;10.00;98.20
44705;DHT22;30431;48.520;9.046;2024-01-30T13:20:42;10.00;98.30
44705;DHT22;30431;48.520;9.046;2024-01-30T13:23:12;9.90;98.80
44705;DHT22;30431;48.520;9.046;2024-01-30T13:25:41;9.90;99.10
44705;DHT22;30431;48.520;9.046;2024-01-30T13:28:08;9.90;99.40
44705;DHT22;30431;48.520;9.046;2024-01-30T13:30:37;9.90;99.30
44705;DHT22;30431;48.520;9.046;2024-01-30T13:33:09;10.00;99.00
44705;DHT22;30431;48.520;9.046;2024-01-30T13:35:36;10.10;99.30
44705;DHT22;30431;48.520;9.046;2024-01-30T13:38:05;10.10;99.10
44705;DHT22;30431;48.520;9.046;2024-01-30T13:40:32;10.10;99.20
44705;DHT22;30431;48.520;9.046;2024-01-30T13:43:01;10.20;99.10
44705;DHT22;30431;48.520;9.046;2024-01-30T13:45:28;10.30;99.50
44705;DHT22;30431;48.520;9.046;2024-01-30T13:47:58;10.30;99.90
44705;DHT22;30431;48.520;9.046;2024-01-30T13:50:28;10.50;99.70
44705;DHT22;30431;48.520;9.046;2024-01-30T13:52:56;10.60;98.60
44705;DHT22;30431;48.520;9.046;2024-01-30T13:55:24;10.70;98.20
44705;DHT22;30431;48.520;9.046;2024-01-30T13:57:52;10.70;97.90
44705;DHT22;30431;48.520;9.046;2024-01-30T14:00:19;10.80;97.80
44705;DHT22;30431;48.520;9.046;2024-01-30T14:02:46;10.80;97.80
44705;DHT22;30431;48.520;9.046;2024-01-30T14:05:14;10.90;98.00
44705;DHT22;30431;48.520;9.046;2024-01-30T14:07:43;11.00;97.80
44705;DHT22;30431;48.520;9.046;2024-01-30T14:10:12;11.10;97.50
44705;DHT22;30431;48.520;9.046;2024-01-30T14:12:42;11.20;96.60
44705;DHT22;30431;48.520;9.046;2024-01-30T14:15:11;11.30;96.80
44705;DHT22;30431;48.520;9.046;2024-01-30T14:17:55;11.40;96.60
44705;DHT22;30431;48.520;9.046;2024-01-30T14:20:24;11.50;96.50
44705;DHT22;30431;48.520;9.046;2024-01-30T14:22:51;11.60;96.40
44705;DHT22;30431;48.520;9.046;2024-01-30T14:25:20;11.60;96.00
44705;DHT22;30431;48.520;9.046;2024-01-30T14:27:47;11.60;95.50
44705;DHT22;30431;48.520;9.046;2024-01-30T14:30:17;11.60;96.00
44705;DHT22;30431;48.520;9.046;2024-01-30T14:32:44;11.60;96.00
44705;DHT22;30431;48.520;9.046;2024-01-30T14:35:11;11.60;96.40
44705;DHT22;30431;48.520;9.046;2024-01-30T14:37:41;11.50;96.80
44705;DHT22;30431;48.520;9.046;2024-01-30T14:40:11;11.50;96.70
44705;DHT22;30431;48.520;9.046;2024-01-30T14:42:38;11.40;96.60
44705;DHT22;30431;48.520;9.046;2024-01-30T14:45:06;11.40;96.70
44705;DHT22;30431;48.520;9.046;2024-01-30T14:47:36;11.40;96.70
44705;DHT22;30431;48.520;9.046;2024-01-30T14:50:08;11.30;96.80
44705;DHT22;30431;48.520;9.046;2024-01-30T14:52:36;11.30;97.30
44705;DHT22;30431;48.520;9.046;2024-01-30T14:55:04;11.30;97.80
44705;DHT22;30431;48.520;9.046;2024-01-30T14:57:31;11.20;98.10
44705;DHT22;30431;48.520;9.046;2024-01-30T14:59:58;11.10;98.30
44705;DHT22;30431;48.520;9.046;2024-01-30T15:02:25;11.10;98.50
44705;DHT22;30431;48.520;9.046;2024-01-30T15:04:53;11.00;99.00
44705;DHT22;30431;48.520;9.046;2024-01-30T15:07:20;10.90;99.60
44705;DHT22;30431;48.520;9.046;2024-01-30T15:09:59;10.80;99.90
44705;DHT22;30431;48.520;9.046;2024-01-30T15:12:26;10.70;99.90
44705;DHT22;30431;48.520;9.046;2024-01-30T15:14:53;10.70;99.90
44705;DHT22;30431;48.520;9.046;2024-01-30T15:17:20;10.60;99.90
44705;DHT22;30431;48.520;9.046;2024-01-30T15:19:50;10.50;99.90
44705;DHT22;30431;48.520;9.046;2024-01-30T15:22:25;10.40;99.90
44705;DHT22;30431;48.520;9.046;2024-01-30T15:24:52;10.40;99.90
44705;DHT22;30431;48.520;9.046;2024-01-30T15:27:19;10.30;99.90
44705;DHT22;30431;48.520;9.046;2024-01-30T15:29:54;10.30;99.90
44705;DHT22;30431;48.520;9.046;2024-01-30T15:32:23;10.10;99.90
44705;DHT22;30431;48.520;9.046;2024-01-30T15:34:52;10.10;99.90
44705;DHT22;30431;48.520;9.046;2024-01-30T15:37:20;9.90;99.90
44705;DHT22;30431;48.520;9.046;2024-01-30T15:39:47;9.90;99.90
44705;DHT22;30431;48.520;9.046;2024-01-30T15:42:16;9.80;99.90
44705;DHT22;30431;48.520;9.046;2024-01-30T15:44:43;9.70;99.90
44705;DHT22;30431;48.520;9.046;2024-01-30T15:47:10;9.60;99.90
44705;DHT22;30431;48.520;9.046;2024-01-30T15:49:37;9.60;99.90
44705;DHT22;30431;48.520;9.046;2024-01-30T15:52:05;9.50;99.90